createdAt,value
2018-06-03T00:01:23.189Z,94.80
2018-06-03T00:03:52.208Z,94.90
2018-06-03T00:06:20.585Z,94.80
2018-06-03T00:08:48.856Z,95.00
2018-06-03T00:11:17.148Z,95.00
2018-06-03T00:13:44.838Z,95.00
2018-06-03T00:16:12.324Z,95.10
2018-06-03T00:18:39.840Z,95.10
2018-06-03T00:21:28.097Z,95.30
2018-06-03T00:23:55.632Z,95.40
2018-06-03T00:26:23.176Z,95.30
2018-06-03T00:28:51.465Z,95.30
2018-06-03T00:31:19.710Z,95.40
2018-06-03T00:33:47.218Z,95.40
2018-06-03T00:36:26.508Z,95.50
2018-06-03T00:38:54.016Z,95.60
2018-06-03T00:41:21.516Z,95.60
2018-06-03T00:43:49.078Z,95.60
2018-06-03T00:46:16.598Z,95.60
2018-06-03T00:48:44.223Z,95.60
2018-06-03T00:51:12.519Z,95.80
2018-06-03T00:53:40.046Z,95.80
2018-06-03T00:56:07.620Z,95.90
2018-06-03T00:58:35.138Z,96.00
2018-06-03T01:01:02.651Z,95.90
2018-06-03T01:03:30.186Z,95.90
2018-06-03T01:05:57.727Z,96.20
2018-06-03T01:08:26.035Z,96.60
2018-06-03T01:10:53.550Z,96.50
2018-06-03T01:13:21.054Z,96.70
2018-06-03T01:15:48.584Z,96.80
2018-06-03T01:18:16.909Z,96.80
2018-06-03T01:20:44.458Z,96.80
2018-06-03T01:23:11.975Z,97.00
2018-06-03T01:25:40.253Z,96.90
2018-06-03T01:28:08.515Z,96.90
2018-06-03T01:30:36.794Z,96.70
2018-06-03T01:33:04.372Z,96.90
2018-06-03T01:35:32.635Z,96.80
2018-06-03T01:38:00.926Z,97.00
2018-06-03T01:40:28.440Z,97.00
2018-06-03T01:42:55.960Z,97.00
2018-06-03T01:45:23.480Z,96.90
2018-06-03T01:47:50.992Z,96.90
2018-06-03T01:50:18.484Z,96.90
2018-06-03T01:52:45.995Z,97.10
2018-06-03T01:55:13.506Z,97.50
2018-06-03T01:58:16.064Z,97.20
2018-06-03T02:00:44.519Z,97.10
2018-06-03T02:03:12.989Z,96.70
2018-06-03T02:05:41.575Z,96.50
2018-06-03T02:08:10.072Z,96.50
2018-06-03T02:10:38.508Z,96.80
2018-06-03T02:13:07.017Z,97.00
2018-06-03T02:15:35.505Z,97.10
2018-06-03T02:18:03.956Z,97.20
2018-06-03T02:20:32.440Z,97.20
2018-06-03T02:23:00.917Z,97.50
2018-06-03T02:25:29.334Z,97.60
2018-06-03T02:27:57.729Z,97.70
2018-06-03T02:30:27.195Z,97.70
2018-06-03T02:32:55.669Z,97.80
2018-06-03T02:35:24.093Z,98.00
2018-06-03T02:37:52.602Z,98.30
2018-06-03T02:40:21.045Z,98.50
2018-06-03T02:42:49.495Z,98.60
2018-06-03T02:45:18.909Z,98.70
2018-06-03T02:47:47.328Z,98.70
2018-06-03T02:50:15.745Z,98.70
2018-06-03T02:52:44.287Z,98.80
2018-06-03T02:55:12.684Z,98.70
2018-06-03T02:57:41.152Z,98.40
2018-06-03T03:00:09.585Z,98.30
2018-06-03T03:02:38.207Z,98.10
2018-06-03T03:05:06.615Z,98.00
2018-06-03T03:07:35.089Z,98.00
2018-06-03T03:10:03.678Z,98.20
2018-06-03T03:12:32.109Z,98.10
2018-06-03T03:15:00.589Z,98.50
2018-06-03T03:17:28.993Z,98.80
2018-06-03T03:19:57.423Z,99.20
2018-06-03T03:22:25.892Z,99.40
2018-06-03T03:24:54.330Z,99.60
2018-06-03T03:27:22.757Z,99.90
2018-06-03T03:29:51.153Z,99.90
2018-06-03T03:32:19.588Z,99.90
2018-06-03T03:34:48.816Z,99.90
2018-06-03T03:37:17.318Z,99.90
2018-06-03T03:39:45.877Z,99.90
2018-06-03T03:42:14.485Z,99.90
2018-06-03T03:44:42.965Z,99.90
2018-06-03T03:47:11.371Z,99.90
2018-06-03T03:49:39.843Z,99.90
2018-06-03T03:52:08.421Z,99.90
2018-06-03T03:54:36.844Z,99.90
2018-06-03T03:57:05.490Z,99.90
2018-06-03T03:59:33.891Z,99.90
2018-06-03T04:02:02.486Z,99.90
2018-06-03T04:04:30.981Z,99.90
2018-06-03T04:06:59.457Z,99.90
2018-06-03T04:09:27.889Z,99.90
2018-06-03T04:11:56.325Z,99.90
2018-06-03T04:14:24.976Z,99.90
2018-06-03T04:16:53.417Z,99.70
2018-06-03T04:19:21.844Z,99.50
2018-06-03T04:21:50.284Z,99.30
2018-06-03T04:24:18.705Z,99.10
2018-06-03T04:26:47.123Z,99.00
2018-06-03T04:29:15.540Z,99.00
2018-06-03T04:31:43.991Z,98.90
2018-06-03T04:34:12.468Z,98.70
2018-06-03T04:36:40.882Z,98.70
2018-06-03T04:39:09.321Z,99.00
2018-06-03T04:41:37.710Z,98.80
2018-06-03T04:44:06.313Z,98.70
2018-06-03T04:46:34.735Z,98.70
2018-06-03T04:49:03.186Z,98.50
2018-06-03T04:51:31.638Z,98.30
2018-06-03T04:54:00.074Z,98.40
2018-06-03T04:56:28.512Z,98.30
2018-06-03T04:58:57.006Z,98.40
2018-06-03T05:01:25.434Z,98.30
2018-06-03T05:03:57.423Z,98.20
2018-06-03T05:06:25.851Z,98.10
2018-06-03T05:08:54.336Z,98.00
2018-06-03T05:11:22.804Z,97.90
2018-06-03T05:13:51.223Z,97.90
2018-06-03T05:16:19.674Z,97.80
2018-06-03T05:18:48.156Z,97.80
2018-06-03T05:21:16.570Z,97.90
2018-06-03T05:23:44.988Z,97.80
2018-06-03T05:26:13.633Z,97.60
2018-06-03T05:28:42.084Z,97.50
2018-06-03T05:31:10.536Z,97.40
2018-06-03T05:33:38.917Z,97.20
2018-06-03T05:36:07.369Z,97.00
2018-06-03T05:38:35.845Z,97.20
2018-06-03T05:41:04.286Z,97.20
2018-06-03T05:43:32.920Z,97.00
2018-06-03T05:46:01.373Z,97.10
2018-06-03T05:48:29.817Z,96.90
2018-06-03T05:50:58.303Z,96.70
2018-06-03T05:53:26.765Z,96.20
2018-06-03T05:55:55.219Z,95.60
2018-06-03T05:58:23.598Z,95.00
2018-06-03T06:00:52.036Z,94.20
2018-06-03T06:03:20.457Z,93.30
2018-06-03T06:05:48.909Z,92.60
2018-06-03T06:08:17.559Z,91.90
2018-06-03T06:10:46.033Z,91.20
2018-06-03T06:13:14.449Z,90.60
2018-06-03T06:15:42.965Z,90.20
2018-06-03T06:18:11.401Z,90.10
2018-06-03T06:20:39.855Z,89.70
2018-06-03T06:23:08.281Z,89.40
2018-06-03T06:25:36.721Z,88.90
2018-06-03T06:28:05.169Z,88.80
2018-06-03T06:30:33.549Z,86.20
2018-06-03T06:33:01.971Z,87.00
2018-06-03T06:35:32.612Z,86.30
2018-06-03T06:38:01.174Z,85.80
2018-06-03T06:40:29.577Z,85.30
2018-06-03T06:42:58.061Z,84.60
2018-06-03T06:45:26.546Z,84.90
2018-06-03T06:47:54.970Z,83.40
2018-06-03T06:50:23.389Z,83.50
2018-06-03T06:52:51.821Z,82.10
2018-06-03T06:55:20.326Z,81.40
2018-06-03T06:57:48.733Z,80.70
2018-06-03T07:00:17.278Z,79.50
2018-06-03T07:02:45.727Z,79.60
2018-06-03T07:05:14.171Z,79.00
2018-06-03T07:07:42.749Z,78.10
2018-06-03T07:10:11.422Z,77.80
2018-06-03T07:12:39.964Z,76.90
2018-06-03T07:15:08.501Z,75.70
2018-06-03T07:17:36.977Z,75.90
2018-06-03T07:20:05.603Z,75.30
2018-06-03T07:22:34.032Z,74.10
2018-06-03T07:25:02.525Z,74.20
2018-06-03T07:27:30.936Z,73.80
2018-06-03T07:29:59.833Z,72.40
2018-06-03T07:32:28.258Z,71.10
2018-06-03T07:34:56.662Z,71.90
2018-06-03T07:37:25.162Z,71.50
2018-06-03T07:39:53.561Z,71.00
2018-06-03T07:42:21.993Z,69.80
2018-06-03T07:44:50.455Z,68.50
2018-06-03T07:47:18.908Z,68.20
2018-06-03T07:49:47.326Z,68.50
2018-06-03T07:52:15.800Z,69.80
2018-06-03T07:54:44.237Z,68.70
2018-06-03T07:57:12.741Z,67.30
2018-06-03T07:59:41.171Z,66.90
2018-06-03T08:02:09.662Z,66.40
2018-06-03T08:04:38.096Z,65.70
2018-06-03T08:07:07.354Z,65.50
2018-06-03T08:09:35.892Z,65.80
2018-06-03T08:12:04.512Z,65.10
2018-06-03T08:14:32.936Z,64.90
2018-06-03T08:17:01.472Z,62.60
2018-06-03T08:19:30.139Z,61.40
2018-06-03T08:21:58.523Z,60.60
2018-06-03T08:24:27.115Z,60.00
2018-06-03T08:26:55.994Z,60.40
2018-06-03T08:29:24.442Z,60.80
2018-06-03T08:31:52.884Z,61.40
2018-06-03T08:34:21.411Z,63.00
2018-06-03T08:36:49.907Z,64.80
2018-06-03T08:39:18.281Z,67.20
2018-06-03T08:41:46.687Z,69.90
2018-06-03T08:44:15.141Z,71.70
2018-06-03T08:46:43.634Z,73.50
2018-06-03T08:49:12.073Z,73.20
2018-06-03T08:51:40.493Z,73.00
2018-06-03T08:54:08.961Z,73.40
2018-06-03T08:56:37.395Z,72.80
2018-06-03T08:59:06.367Z,72.90
2018-06-03T09:01:34.851Z,71.70
2018-06-03T09:04:03.264Z,71.50
2018-06-03T09:06:31.684Z,70.90
2018-06-03T09:09:00.248Z,69.80
2018-06-03T09:11:28.680Z,67.90
2018-06-03T09:13:57.114Z,66.70
2018-06-03T09:16:25.533Z,65.00
2018-06-03T09:18:54.035Z,64.10
2018-06-03T09:21:22.352Z,62.10
2018-06-03T09:23:50.784Z,60.70
2018-06-03T09:26:19.204Z,61.40
2018-06-03T09:31:16.006Z,60.40
2018-06-03T09:33:44.448Z,60.20
2018-06-03T09:36:13.022Z,58.70
2018-06-03T09:38:41.400Z,57.90
2018-06-03T09:41:10.004Z,56.70
2018-06-03T09:43:38.408Z,57.00
2018-06-03T09:46:06.837Z,56.00
2018-06-03T09:48:35.325Z,56.50
2018-06-03T09:51:03.771Z,58.00
2018-06-03T09:53:32.212Z,60.90
2018-06-03T09:56:00.662Z,63.10
2018-06-03T09:58:29.115Z,61.90
2018-06-03T10:00:57.557Z,61.80
2018-06-03T10:03:25.977Z,59.40
2018-06-03T10:05:54.366Z,59.20
2018-06-03T10:08:22.806Z,59.60
2018-06-03T10:10:51.508Z,58.70
2018-06-03T10:13:19.948Z,56.00
2018-06-03T10:15:49.327Z,55.80
2018-06-03T10:18:17.757Z,55.90
2018-06-03T10:20:46.175Z,56.90
2018-06-03T10:23:14.600Z,57.90
2018-06-03T10:25:43.000Z,55.80
2018-06-03T10:28:11.774Z,57.10
2018-06-03T10:30:40.281Z,57.50
2018-06-03T10:33:08.700Z,58.40
2018-06-03T10:35:37.383Z,59.80
2018-06-03T10:38:05.822Z,63.10
2018-06-03T10:40:37.752Z,62.10
2018-06-03T10:43:06.195Z,61.70
2018-06-03T10:45:34.637Z,63.10
2018-06-03T10:48:03.068Z,61.00
2018-06-03T10:50:31.574Z,59.00
2018-06-03T10:53:00.012Z,57.60
2018-06-03T10:55:28.807Z,56.10
2018-06-03T10:57:57.233Z,56.10
2018-06-03T11:00:25.643Z,55.80
2018-06-03T11:02:54.137Z,55.80
2018-06-03T11:05:23.899Z,55.50
2018-06-03T11:07:52.455Z,56.10
2018-06-03T11:10:20.857Z,55.40
2018-06-03T11:12:49.458Z,55.40
2018-06-03T11:15:18.437Z,55.80
2018-06-03T11:17:46.887Z,58.10
2018-06-03T11:20:15.352Z,59.60
2018-06-03T11:22:43.825Z,60.40
2018-06-03T11:25:12.433Z,61.70
2018-06-03T11:27:41.308Z,65.40
2018-06-03T11:30:10.736Z,66.60
2018-06-03T11:32:39.299Z,68.60
2018-06-03T11:35:07.747Z,69.80
2018-06-03T11:37:36.176Z,71.50
2018-06-03T11:40:04.673Z,71.30
2018-06-03T11:42:33.159Z,70.80
2018-06-03T11:45:01.623Z,70.90
2018-06-03T11:47:30.021Z,71.30
2018-06-03T11:49:58.449Z,71.30
2018-06-03T11:52:26.905Z,71.50
2018-06-03T11:54:55.431Z,71.20
2018-06-03T11:58:33.773Z,71.10
2018-06-03T12:01:02.204Z,71.90
2018-06-03T12:03:30.985Z,70.50
2018-06-03T12:05:59.450Z,69.90
2018-06-03T12:08:27.902Z,71.10
2018-06-03T12:10:56.448Z,69.90
2018-06-03T12:13:24.887Z,69.30
2018-06-03T12:15:53.913Z,69.30
2018-06-03T12:18:22.563Z,68.40
2018-06-03T12:20:50.981Z,68.50
2018-06-03T12:23:19.438Z,70.60
2018-06-03T12:25:48.417Z,68.10
2018-06-03T12:28:17.430Z,68.20
2018-06-03T12:30:46.010Z,68.80
2018-06-03T12:33:14.478Z,69.60
2018-06-03T12:35:42.916Z,69.20
2018-06-03T12:38:12.058Z,67.50
2018-06-03T12:40:40.464Z,68.90
2018-06-03T12:43:14.978Z,67.70
2018-06-03T12:45:43.404Z,68.10
2018-06-03T12:48:11.972Z,69.10
2018-06-03T12:50:40.818Z,68.50
2018-06-03T12:53:09.278Z,68.60
2018-06-03T12:55:38.066Z,68.10
2018-06-03T12:58:06.496Z,67.50
2018-06-03T13:00:34.972Z,67.70
2018-06-03T13:03:03.424Z,67.00
2018-06-03T13:05:31.858Z,68.20
2018-06-03T13:08:00.263Z,69.10
2018-06-03T13:10:28.778Z,69.70
2018-06-03T13:12:57.272Z,69.70
2018-06-03T13:15:25.780Z,69.20
2018-06-03T13:17:54.245Z,68.90
2018-06-03T13:20:22.768Z,69.50
2018-06-03T13:22:51.200Z,69.10
2018-06-03T13:25:19.632Z,68.70
2018-06-03T13:27:48.073Z,68.30
2018-06-03T13:30:16.510Z,68.40
2018-06-03T13:32:44.948Z,69.40
2018-06-03T13:35:13.390Z,70.30
2018-06-03T13:37:42.004Z,70.20
2018-06-03T13:40:10.438Z,70.40
2018-06-03T13:42:38.912Z,68.80
2018-06-03T13:45:07.399Z,69.10
2018-06-03T13:47:35.842Z,68.10
2018-06-03T13:50:04.601Z,68.40
2018-06-03T13:52:33.045Z,68.80
2018-06-03T13:55:01.521Z,69.90
2018-06-03T13:57:30.023Z,68.50
2018-06-03T13:59:58.518Z,70.20
2018-06-03T14:02:26.966Z,69.50
2018-06-03T14:04:55.405Z,70.40
2018-06-03T14:07:23.873Z,71.30
2018-06-03T14:09:52.429Z,71.00
2018-06-03T14:12:20.930Z,71.20
2018-06-03T14:14:53.403Z,70.90
2018-06-03T14:17:21.826Z,70.70
2018-06-03T14:19:50.351Z,69.30
2018-06-03T14:22:18.783Z,69.40
2018-06-03T14:24:47.199Z,67.90
2018-06-03T14:27:15.695Z,67.70
2018-06-03T14:29:44.285Z,68.90
2018-06-03T14:32:12.742Z,68.60
2018-06-03T14:34:41.344Z,69.50
2018-06-03T14:37:09.790Z,70.50
2018-06-03T14:39:38.210Z,69.70
2018-06-03T14:42:06.662Z,69.80
2018-06-03T14:44:35.096Z,69.00
2018-06-03T14:47:03.580Z,69.30
2018-06-03T14:49:31.989Z,69.80
2018-06-03T14:52:00.401Z,70.60
2018-06-03T14:54:28.855Z,71.30
2018-06-03T14:56:57.356Z,72.70
2018-06-03T14:59:25.759Z,73.10
2018-06-03T15:01:54.164Z,72.40
2018-06-03T15:04:22.896Z,73.70
2018-06-03T15:06:51.362Z,75.00
2018-06-03T15:09:19.807Z,74.60
2018-06-03T15:11:48.267Z,74.10
2018-06-03T15:14:16.745Z,74.30
2018-06-03T15:16:45.173Z,73.40
2018-06-03T15:19:13.716Z,72.90
2018-06-03T15:21:42.189Z,73.60
2018-06-03T15:24:10.698Z,74.80
2018-06-03T15:26:39.112Z,75.50
2018-06-03T15:29:07.538Z,75.10
2018-06-03T15:31:35.992Z,74.10
2018-06-03T15:34:04.471Z,73.50
2018-06-03T15:36:32.890Z,73.20
2018-06-03T15:39:01.314Z,72.50
2018-06-03T15:41:29.726Z,71.40
2018-06-03T15:43:58.194Z,71.20
2018-06-03T15:46:27.407Z,71.30
2018-06-03T15:48:55.882Z,71.70
2018-06-03T15:51:24.431Z,71.10
2018-06-03T15:53:53.114Z,72.80
2018-06-03T15:56:21.644Z,73.20
2018-06-03T15:58:50.177Z,71.40
2018-06-03T16:01:18.637Z,72.40
2018-06-03T16:03:47.095Z,73.30
2018-06-03T16:06:15.496Z,72.30
2018-06-03T16:08:43.933Z,72.30
2018-06-03T16:11:12.354Z,71.30
2018-06-03T16:13:40.940Z,71.50
2018-06-03T16:16:09.284Z,72.70
2018-06-03T16:18:37.742Z,73.70
2018-06-03T16:21:06.529Z,73.30
2018-06-03T16:23:34.916Z,74.00
2018-06-03T16:26:03.363Z,72.70
2018-06-03T16:28:31.809Z,73.20
2018-06-03T16:31:00.229Z,73.40
2018-06-03T16:33:28.860Z,73.40
2018-06-03T16:35:57.251Z,73.10
2018-06-03T16:38:26.456Z,73.70
2018-06-03T16:40:54.872Z,73.00
2018-06-03T16:43:23.337Z,73.60
2018-06-03T16:45:51.754Z,72.90
2018-06-03T16:48:20.456Z,73.00
2018-06-03T16:50:49.485Z,72.40
2018-06-03T16:53:18.128Z,72.20
2018-06-03T16:55:46.699Z,71.70
2018-06-03T16:58:15.425Z,73.70
2018-06-03T17:00:43.844Z,73.00
2018-06-03T17:03:13.313Z,74.00
2018-06-03T17:05:41.934Z,74.40
2018-06-03T17:08:10.375Z,74.80
2018-06-03T17:10:38.801Z,75.00
2018-06-03T17:13:07.371Z,75.20
2018-06-03T17:15:35.876Z,76.10
2018-06-03T17:18:04.468Z,76.70
2018-06-03T17:23:01.325Z,78.00
2018-06-03T17:25:29.793Z,78.30
2018-06-03T17:27:58.911Z,77.00
2018-06-03T17:30:27.493Z,76.00
2018-06-03T17:32:55.911Z,75.90
2018-06-03T17:35:24.455Z,76.50
2018-06-03T17:37:52.908Z,76.90
2018-06-03T17:40:21.413Z,77.20
2018-06-03T17:42:49.853Z,78.00
2018-06-03T17:45:18.325Z,78.50
2018-06-03T17:47:46.725Z,78.80
2018-06-03T17:50:15.743Z,77.30
2018-06-03T17:52:44.273Z,78.10
2018-06-03T17:55:13.661Z,77.90
2018-06-03T17:57:42.064Z,78.50
2018-06-03T18:00:12.380Z,78.40
2018-06-03T18:02:40.916Z,78.60
2018-06-03T18:05:10.648Z,78.80
2018-06-03T18:07:39.309Z,78.90
2018-06-03T18:10:07.720Z,79.40
2018-06-03T18:12:36.218Z,80.40
2018-06-03T18:15:04.817Z,79.60
2018-06-03T18:17:33.453Z,78.80
2018-06-03T18:20:01.901Z,78.40
2018-06-03T18:22:30.380Z,79.30
2018-06-03T18:24:58.915Z,79.90
2018-06-03T18:27:27.406Z,79.60
2018-06-03T18:29:55.921Z,79.90
2018-06-03T18:32:24.443Z,79.90
2018-06-03T18:34:53.029Z,79.90
2018-06-03T18:37:21.463Z,80.00
2018-06-03T18:39:49.964Z,79.90
2018-06-03T18:42:18.548Z,80.30
2018-06-03T18:44:46.968Z,80.00
2018-06-03T18:47:15.508Z,80.90
2018-06-03T18:49:43.940Z,80.20
2018-06-03T18:52:12.873Z,80.00
2018-06-03T18:54:41.545Z,79.40
2018-06-03T18:57:09.933Z,79.80
2018-06-03T18:59:38.408Z,79.50
2018-06-03T19:02:06.862Z,79.70
2018-06-03T19:04:35.565Z,80.00
2018-06-03T19:07:04.008Z,80.30
2018-06-03T19:09:32.565Z,80.80
2018-06-03T19:12:01.042Z,80.70
2018-06-03T19:14:29.648Z,81.30
2018-06-03T19:16:58.304Z,81.10
2018-06-03T19:19:26.883Z,81.30
2018-06-03T19:21:55.328Z,81.70
2018-06-03T19:24:23.809Z,82.10
2018-06-03T19:26:52.206Z,82.60
2018-06-03T19:29:20.660Z,82.80
2018-06-03T19:31:49.960Z,83.20
2018-06-03T19:34:20.217Z,83.70
2018-06-03T19:36:48.734Z,84.20
2018-06-03T19:39:18.349Z,83.90
2018-06-03T19:41:46.900Z,83.80
2018-06-03T19:44:15.310Z,83.50
2018-06-03T19:46:43.716Z,83.70
2018-06-03T19:49:12.188Z,84.00
2018-06-03T19:51:41.016Z,85.10
2018-06-03T19:54:09.724Z,84.10
2018-06-03T19:56:38.922Z,83.80
2018-06-03T19:59:07.532Z,83.80
2018-06-03T20:01:36.185Z,84.00
2018-06-03T20:04:04.772Z,83.90
2018-06-03T20:06:33.284Z,84.40
2018-06-03T20:09:01.808Z,84.70
2018-06-03T20:11:31.096Z,85.00
2018-06-03T20:13:59.633Z,85.20
2018-06-03T20:16:28.192Z,85.60
2018-06-03T20:18:56.675Z,85.80
2018-06-03T20:21:25.120Z,86.10
2018-06-03T20:23:53.576Z,86.70
2018-06-03T20:26:22.148Z,87.40
2018-06-03T20:28:50.620Z,88.20
2018-06-03T20:31:19.374Z,88.60
2018-06-03T20:33:48.985Z,88.90
2018-06-03T20:36:17.529Z,89.50
2018-06-03T20:38:46.005Z,90.00
2018-06-03T20:41:14.526Z,90.10
2018-06-03T20:43:43.480Z,90.20
2018-06-03T20:46:12.537Z,90.20
2018-06-03T20:48:41.026Z,90.30
2018-06-03T20:51:09.472Z,90.40
2018-06-03T20:53:38.068Z,90.50
2018-06-03T20:56:06.484Z,90.60
2018-06-03T20:58:35.218Z,90.70
2018-06-03T21:01:03.864Z,90.80
2018-06-03T21:03:32.410Z,90.80
2018-06-03T21:06:01.235Z,91.20
2018-06-03T21:08:29.721Z,90.90
2018-06-03T21:10:58.169Z,90.90
2018-06-03T21:13:26.664Z,90.90
2018-06-03T21:15:55.120Z,90.90
2018-06-03T21:18:23.648Z,91.00
2018-06-03T21:20:52.068Z,91.20
2018-06-03T21:23:20.492Z,91.20
2018-06-03T21:25:48.941Z,91.40
2018-06-03T21:28:17.460Z,91.50
2018-06-03T21:30:45.860Z,91.70
2018-06-03T21:33:14.324Z,91.80
2018-06-03T21:35:42.746Z,91.90
2018-06-03T21:38:11.192Z,92.10
2018-06-03T21:40:40.251Z,92.20
2018-06-03T21:43:08.698Z,92.20
2018-06-03T21:45:37.133Z,92.30
2018-06-03T21:48:05.657Z,92.40
2018-06-03T21:50:34.097Z,92.50
2018-06-03T21:53:02.539Z,92.60
2018-06-03T21:55:31.021Z,92.60
2018-06-03T21:57:59.487Z,92.70
2018-06-03T22:00:28.074Z,92.90
2018-06-03T22:02:56.486Z,93.10
2018-06-03T22:05:25.026Z,93.00
2018-06-03T22:07:53.471Z,93.10
2018-06-03T22:10:21.983Z,93.10
2018-06-03T22:12:50.457Z,93.10
2018-06-03T22:15:18.879Z,93.40
2018-06-03T22:17:47.320Z,93.20
2018-06-03T22:20:15.872Z,93.60
2018-06-03T22:22:44.410Z,93.10
2018-06-03T22:25:12.867Z,93.20
2018-06-03T22:27:41.339Z,93.30
2018-06-03T22:30:09.724Z,93.30
2018-06-03T22:32:38.806Z,93.50
2018-06-03T22:35:07.283Z,93.80
2018-06-03T22:37:35.694Z,93.50
2018-06-03T22:40:04.192Z,93.60
2018-06-03T22:42:32.633Z,93.40
2018-06-03T22:45:01.048Z,93.60
2018-06-03T22:47:29.517Z,93.60
2018-06-03T22:49:57.996Z,94.10
2018-06-03T22:52:26.449Z,93.80
2018-06-03T22:54:54.913Z,93.70
2018-06-03T22:57:44.328Z,93.90
2018-06-03T23:00:19.998Z,94.00
2018-06-03T23:02:54.484Z,93.80
2018-06-03T23:05:23.065Z,93.60
2018-06-03T23:07:52.053Z,93.80
2018-06-03T23:10:20.926Z,94.10
2018-06-03T23:12:49.451Z,94.00
2018-06-03T23:15:17.916Z,94.10
2018-06-03T23:17:46.383Z,93.90
2018-06-03T23:20:14.845Z,93.70
2018-06-03T23:22:43.329Z,94.00
2018-06-03T23:25:11.820Z,94.80
2018-06-03T23:27:40.255Z,94.50
2018-06-03T23:30:09.025Z,94.30
2018-06-03T23:32:37.480Z,94.30
2018-06-03T23:35:05.909Z,94.50
2018-06-03T23:37:34.385Z,94.90
2018-06-03T23:40:02.941Z,94.60
2018-06-03T23:42:31.365Z,94.80
2018-06-03T23:44:59.784Z,95.00
2018-06-03T23:47:28.195Z,94.90
2018-06-03T23:49:56.689Z,94.90
2018-06-03T23:52:25.285Z,95.10
2018-06-03T23:54:53.740Z,94.90
2018-06-03T23:57:22.201Z,94.80
2018-06-03T23:59:50.628Z,94.60
